createdAt,value
2023-03-30T00:00:27.221Z,97369.94
2023-03-30T00:04:30.302Z,97373.72
2023-03-30T00:08:33.319Z,97372.03
2023-03-30T00:12:35.410Z,97374.78
2023-03-30T00:16:37.557Z,97364.31
2023-03-30T00:20:43.005Z,97355.41
2023-03-30T00:24:45.377Z,97365.09
2023-03-30T00:28:47.430Z,97375.50
2023-03-30T00:32:49.469Z,97368.06
2023-03-30T00:36:53.346Z,97371.25
2023-03-30T00:40:58.251Z,97365.25
2023-03-30T00:45:21.350Z,97360.69
2023-03-30T00:49:23.468Z,97358.31
2023-03-30T00:53:33.511Z,97365.34
2023-03-30T00:57:42.516Z,97356.97
2023-03-30T01:01:50.296Z,97343.09
2023-03-30T01:05:53.669Z,97334.16
2023-03-30T01:09:55.981Z,97330.78
2023-03-30T01:14:01.239Z,97329.81
2023-03-30T01:18:27.673Z,97329.50
2023-03-30T01:22:50.141Z,97330.41
2023-03-30T01:26:59.677Z,97324.50
2023-03-30T01:31:04.741Z,97316.53
2023-03-30T01:35:44.182Z,97326.84
2023-03-30T01:39:52.005Z,97318.63
2023-03-30T01:44:04.712Z,97326.50
2023-03-30T01:48:33.140Z,97334.09
2023-03-30T01:52:56.502Z,97316.59
2023-03-30T01:57:09.297Z,97307.91
2023-03-30T02:01:14.504Z,97313.75
2023-03-30T02:05:19.205Z,97310.94
2023-03-30T02:09:24.257Z,97313.06
2023-03-30T02:13:31.787Z,97308.00
2023-03-30T02:17:35.699Z,97316.06
2023-03-30T02:21:38.297Z,97341.06
2023-03-30T02:25:40.410Z,97338.84
2023-03-30T02:29:45.385Z,97354.03
2023-03-30T02:33:56.958Z,97364.94
2023-03-30T02:38:20.030Z,97369.00
2023-03-30T02:42:42.733Z,97367.22
2023-03-30T02:46:58.373Z,97356.34
2023-03-30T02:51:19.673Z,97333.88
2023-03-30T02:56:06.677Z,97321.00
2023-03-30T03:00:36.301Z,97316.47
2023-03-30T03:04:43.382Z,97321.09
2023-03-30T03:08:59.612Z,97332.94
2023-03-30T03:13:04.095Z,97339.38
2023-03-30T03:17:07.178Z,97356.22
2023-03-30T03:21:14.219Z,97367.84
2023-03-30T03:25:16.814Z,97366.69
2023-03-30T03:29:28.810Z,97375.75
2023-03-30T03:33:31.953Z,97380.72
2023-03-30T03:37:42.852Z,97358.25
2023-03-30T03:41:45.000Z,97326.38
2023-03-30T03:45:48.093Z,97292.09
2023-03-30T03:49:50.116Z,97255.22
2023-03-30T03:53:53.783Z,97238.56
2023-03-30T03:57:56.309Z,97216.41
2023-03-30T04:01:58.330Z,97229.13
2023-03-30T04:06:01.200Z,97231.22
2023-03-30T04:10:05.308Z,97226.47
2023-03-30T04:14:21.060Z,97229.50
2023-03-30T04:18:45.862Z,97229.69
2023-03-30T04:23:03.172Z,97221.91
2023-03-30T04:27:25.892Z,97218.75
2023-03-30T04:31:48.186Z,97225.06
2023-03-30T04:36:25.631Z,97205.91
2023-03-30T04:40:38.449Z,97197.03
2023-03-30T04:45:00.953Z,97209.25
2023-03-30T04:49:35.387Z,97198.41
2023-03-30T04:53:57.545Z,97182.31
2023-03-30T04:58:18.357Z,97175.78
2023-03-30T05:02:36.462Z,97162.31
2023-03-30T05:07:02.305Z,97169.09
2023-03-30T05:11:38.224Z,97161.72
2023-03-30T05:16:00.823Z,97159.59
2023-03-30T05:20:18.203Z,97155.59
2023-03-30T05:24:46.318Z,97155.09
2023-03-30T05:28:58.815Z,97165.31
2023-03-30T05:33:13.898Z,97177.50
2023-03-30T05:37:55.237Z,97171.84
2023-03-30T05:42:36.585Z,97159.59
2023-03-30T05:46:57.446Z,97189.00
2023-03-30T05:51:08.905Z,97208.28
2023-03-30T05:55:23.666Z,97212.06
2023-03-30T05:59:41.299Z,97196.00
2023-03-30T06:04:09.449Z,97210.50
2023-03-30T06:08:13.389Z,97216.50
2023-03-30T06:12:16.324Z,97238.88
2023-03-30T06:16:18.840Z,97218.03
2023-03-30T06:20:21.608Z,97238.03
2023-03-30T06:24:25.337Z,97235.69
2023-03-30T06:28:27.808Z,97240.97
2023-03-30T06:32:30.289Z,97208.84
2023-03-30T06:36:53.783Z,97214.59
2023-03-30T06:40:58.444Z,97257.00
2023-03-30T06:45:04.418Z,97250.34
2023-03-30T06:49:07.783Z,97223.47
2023-03-30T06:53:33.142Z,97194.50
2023-03-30T06:57:35.230Z,97190.88
2023-03-30T07:01:38.349Z,97181.59
2023-03-30T07:06:00.629Z,97212.19
2023-03-30T07:10:13.118Z,97234.63
2023-03-30T07:14:15.531Z,97247.50
2023-03-30T07:18:17.876Z,97258.66
2023-03-30T07:22:20.123Z,97244.16
2023-03-30T07:26:22.347Z,97244.50
2023-03-30T07:30:29.697Z,97226.38
2023-03-30T07:34:37.300Z,97224.63
2023-03-30T07:38:39.821Z,97221.75
2023-03-30T07:42:42.111Z,97227.13
2023-03-30T07:46:44.678Z,97219.69
2023-03-30T07:51:11.119Z,97218.53
2023-03-30T07:55:21.092Z,97217.06
2023-03-30T07:59:28.396Z,97214.97
2023-03-30T08:03:36.987Z,97221.09
2023-03-30T08:07:39.341Z,97231.63
2023-03-30T08:11:48.287Z,97248.63
2023-03-30T08:15:50.896Z,97259.50
2023-03-30T08:19:52.943Z,97273.41
2023-03-30T08:23:59.280Z,97283.34
2023-03-30T08:28:02.081Z,97282.59
2023-03-30T08:32:04.195Z,97281.56
2023-03-30T08:36:06.485Z,97282.09
2023-03-30T08:40:13.099Z,97276.59
2023-03-30T08:44:23.196Z,97272.66
2023-03-30T08:48:28.795Z,97256.75
2023-03-30T08:52:30.900Z,97253.69
2023-03-30T08:56:38.908Z,97253.19
2023-03-30T09:00:54.281Z,97256.19
2023-03-30T09:05:18.927Z,97243.31
2023-03-30T09:09:23.679Z,97236.16
2023-03-30T09:13:35.317Z,97235.69
2023-03-30T09:18:32.954Z,97242.72
2023-03-30T09:22:39.844Z,97243.38
2023-03-30T09:26:59.091Z,97244.22
2023-03-30T09:31:04.893Z,97242.38
2023-03-30T09:35:18.839Z,97263.41
2023-03-30T09:39:27.673Z,97267.16
2023-03-30T09:43:46.070Z,97264.00
2023-03-30T09:47:48.447Z,97269.41
2023-03-30T09:51:57.145Z,97263.75
2023-03-30T09:56:07.219Z,97269.28
2023-03-30T10:00:33.942Z,97259.97
2023-03-30T10:05:02.372Z,97252.50
2023-03-30T10:09:11.347Z,97248.53
2023-03-30T10:13:16.417Z,97251.03
2023-03-30T10:17:21.273Z,97258.38
2023-03-30T10:21:27.400Z,97251.28
2023-03-30T10:25:32.701Z,97242.63
2023-03-30T10:29:34.724Z,97248.03
2023-03-30T10:33:43.776Z,97253.16
2023-03-30T10:37:48.098Z,97245.56
2023-03-30T10:41:50.961Z,97255.78
2023-03-30T10:45:59.833Z,97246.41
2023-03-30T10:50:46.425Z,97253.13
2023-03-30T10:55:17.715Z,97214.63
2023-03-30T10:59:49.601Z,97237.72
2023-03-30T11:04:06.660Z,97233.16
2023-03-30T11:08:22.945Z,97210.53
2023-03-30T11:12:34.303Z,97210.31
2023-03-30T11:16:51.418Z,97208.72
2023-03-30T11:21:05.800Z,97201.63
2023-03-30T11:25:21.514Z,97192.63
2023-03-30T11:29:43.527Z,97185.28
2023-03-30T11:33:51.075Z,97192.44
2023-03-30T11:38:08.221Z,97177.69
2023-03-30T11:42:15.073Z,97208.00
2023-03-30T11:46:43.388Z,97218.25
2023-03-30T11:51:21.433Z,97226.00
2023-03-30T11:55:35.970Z,97236.59
2023-03-30T11:59:49.833Z,97242.63
2023-03-30T12:04:26.550Z,97247.00
2023-03-30T12:08:42.455Z,97296.31
2023-03-30T12:12:45.951Z,97290.81
2023-03-30T12:16:54.684Z,97326.38
2023-03-30T12:21:28.536Z,97330.19
2023-03-30T12:25:50.311Z,97322.78
2023-03-30T12:34:07.467Z,97330.69
2023-03-30T12:38:17.669Z,97363.66
2023-03-30T12:42:34.286Z,97362.16
2023-03-30T12:46:50.073Z,97358.50
2023-03-30T12:51:12.113Z,97341.06
2023-03-30T12:55:27.736Z,97303.19
2023-03-30T12:59:48.147Z,97323.75
2023-03-30T13:03:53.392Z,97346.53
2023-03-30T13:07:56.342Z,97350.44
2023-03-30T13:11:58.294Z,97364.16
2023-03-30T13:16:00.395Z,97347.56
2023-03-30T13:20:29.080Z,97345.53
2023-03-30T13:24:36.214Z,97333.16
2023-03-30T13:29:04.319Z,97339.47
2023-03-30T13:33:12.605Z,97341.56
2023-03-30T13:37:33.023Z,97342.09
2023-03-30T13:41:50.495Z,97300.19
2023-03-30T13:46:34.786Z,97320.28
2023-03-30T13:50:38.572Z,97313.59
2023-03-30T13:54:41.653Z,97311.81
2023-03-30T13:58:58.641Z,97309.00
2023-03-30T14:03:28.765Z,97308.31
2023-03-30T14:07:43.281Z,97309.06
2023-03-30T14:11:49.962Z,97313.66
2023-03-30T14:15:52.122Z,97311.63
2023-03-30T14:20:18.300Z,97326.25
2023-03-30T14:24:31.817Z,97328.00
2023-03-30T14:28:35.953Z,97334.81
2023-03-30T14:32:38.242Z,97328.28
2023-03-30T14:36:44.994Z,97327.66
2023-03-30T14:40:48.080Z,97317.31
2023-03-30T14:44:53.419Z,97321.00
2023-03-30T14:48:56.166Z,97328.50
2023-03-30T14:52:58.561Z,97323.84
2023-03-30T14:57:03.806Z,97330.91
2023-03-30T15:01:11.167Z,97315.28
2023-03-30T15:05:17.456Z,97319.38
2023-03-30T15:09:23.170Z,97325.09
2023-03-30T15:13:32.234Z,97311.81
2023-03-30T15:17:36.038Z,97299.44
2023-03-30T15:21:40.109Z,97302.09
2023-03-30T15:25:43.686Z,97309.47
2023-03-30T15:29:47.083Z,97318.88
2023-03-30T15:33:51.150Z,97312.25
2023-03-30T15:37:59.340Z,97309.81
2023-03-30T15:42:04.508Z,97316.16
2023-03-30T15:46:15.818Z,97309.47
2023-03-30T15:50:19.347Z,97308.13
2023-03-30T15:54:29.763Z,97317.41
2023-03-30T15:58:33.114Z,97312.25
2023-03-30T16:02:39.354Z,97308.66
2023-03-30T16:06:43.580Z,97299.44
2023-03-30T16:10:46.736Z,97289.00
2023-03-30T16:14:49.504Z,97294.50
2023-03-30T16:18:51.640Z,97286.06
2023-03-30T16:22:53.773Z,97290.91
2023-03-30T16:26:55.760Z,97287.72
2023-03-30T16:31:01.980Z,97287.72
2023-03-30T16:35:04.436Z,97291.53
2023-03-30T16:39:27.202Z,97297.38
2023-03-30T16:43:29.263Z,97286.50
2023-03-30T16:47:31.854Z,97286.19
2023-03-30T16:51:33.925Z,97290.31
2023-03-30T16:55:36.590Z,97291.47
2023-03-30T16:59:38.641Z,97285.97
2023-03-30T17:03:40.667Z,97308.78
2023-03-30T17:07:42.924Z,97308.94
2023-03-30T17:11:46.292Z,97313.47
2023-03-30T17:15:48.345Z,97316.19
2023-03-30T17:19:50.438Z,97324.28
2023-03-30T17:23:52.585Z,97326.31
2023-03-30T17:27:56.023Z,97331.63
2023-03-30T17:31:58.094Z,97343.03
2023-03-30T17:36:07.106Z,97344.47
2023-03-30T17:40:19.872Z,97336.31
2023-03-30T17:44:21.977Z,97346.88
2023-03-30T17:48:25.200Z,97348.25
2023-03-30T17:52:30.156Z,97353.06
2023-03-30T17:56:32.290Z,97354.34
2023-03-30T18:00:34.346Z,97355.66
2023-03-30T18:04:36.394Z,97355.88
2023-03-30T18:08:39.516Z,97360.69
2023-03-30T18:12:41.615Z,97356.66
2023-03-30T18:16:44.436Z,97364.63
2023-03-30T18:20:49.021Z,97369.13
2023-03-30T18:24:51.616Z,97367.25
2023-03-30T18:28:53.739Z,97380.97
2023-03-30T18:32:56.561Z,97384.34
2023-03-30T18:36:58.606Z,97383.16
2023-03-30T18:41:01.272Z,97377.63
2023-03-30T18:45:03.566Z,97385.50
2023-03-30T18:49:06.001Z,97383.81
2023-03-30T18:53:13.365Z,97388.34
2023-03-30T18:57:15.757Z,97386.22
2023-03-30T19:01:17.866Z,97381.16
2023-03-30T19:05:21.622Z,97387.69
2023-03-30T19:09:36.436Z,97381.56
2023-03-30T19:13:44.646Z,97384.25
2023-03-30T19:17:47.133Z,97389.25
2023-03-30T19:21:49.200Z,97386.06
2023-03-30T19:25:51.482Z,97392.41
2023-03-30T19:29:53.817Z,97397.94
2023-03-30T19:33:55.806Z,97394.03
2023-03-30T19:37:58.097Z,97393.63
2023-03-30T19:42:00.147Z,97396.78
2023-03-30T19:46:02.281Z,97394.72
2023-03-30T19:50:09.407Z,97390.84
2023-03-30T19:54:11.452Z,97392.28
2023-03-30T19:58:13.667Z,97401.84
2023-03-30T20:02:16.292Z,97391.34
2023-03-30T20:06:18.334Z,97379.16
2023-03-30T20:10:23.452Z,97381.78
2023-03-30T20:14:25.621Z,97383.75
2023-03-30T20:18:30.917Z,97375.91
2023-03-30T20:22:36.990Z,97374.03
2023-03-30T20:26:39.001Z,97372.88
2023-03-30T20:30:41.129Z,97374.66
2023-03-30T20:34:46.121Z,97370.41
2023-03-30T20:38:49.726Z,97368.97
2023-03-30T20:42:51.748Z,97362.22
2023-03-30T20:46:57.871Z,97363.44
2023-03-30T20:51:05.151Z,97356.38
2023-03-30T20:55:08.188Z,97348.50
2023-03-30T20:59:10.299Z,97354.44
2023-03-30T21:03:14.025Z,97356.88
2023-03-30T21:07:17.205Z,97353.16
2023-03-30T21:11:20.432Z,97354.00
2023-03-30T21:15:22.556Z,97349.88
2023-03-30T21:19:24.646Z,97350.88
2023-03-30T21:23:27.154Z,97348.09
2023-03-30T21:27:29.182Z,97343.25
2023-03-30T21:31:31.345Z,97345.59
2023-03-30T21:35:33.566Z,97349.81
2023-03-30T21:39:35.828Z,97356.19
2023-03-30T21:43:42.760Z,97339.94
2023-03-30T21:47:44.814Z,97321.06
2023-03-30T21:51:46.889Z,97314.38
2023-03-30T21:55:48.958Z,97313.13
2023-03-30T21:59:50.982Z,97311.53
2023-03-30T22:03:54.978Z,97304.66
2023-03-30T22:07:57.061Z,97289.44
2023-03-30T22:11:59.021Z,97287.94
2023-03-30T22:16:04.959Z,97282.03
2023-03-30T22:20:11.414Z,97281.34
2023-03-30T22:24:13.554Z,97276.28
2023-03-30T22:28:15.630Z,97267.66
2023-03-30T22:32:18.747Z,97272.22
2023-03-30T22:36:24.024Z,97257.34
2023-03-30T22:40:26.002Z,97275.59
2023-03-30T22:44:28.455Z,97259.97
2023-03-30T22:48:30.457Z,97252.25
2023-03-30T22:52:32.581Z,97254.16
2023-03-30T22:56:34.618Z,97242.25
2023-03-30T23:00:37.092Z,97244.84
2023-03-30T23:04:39.991Z,97246.56
2023-03-30T23:08:42.454Z,97242.94
2023-03-30T23:12:44.929Z,97227.22
2023-03-30T23:16:46.967Z,97228.88
2023-03-30T23:20:49.044Z,97215.03
2023-03-30T23:24:51.268Z,97216.78
2023-03-30T23:28:53.292Z,97216.03
2023-03-30T23:32:55.880Z,97218.63
2023-03-30T23:36:59.620Z,97207.56
2023-03-30T23:41:01.819Z,97208.00
2023-03-30T23:45:04.107Z,97192.19
2023-03-30T23:49:06.223Z,97186.38
2023-03-30T23:53:09.334Z,97186.38
2023-03-30T23:57:11.424Z,97190.84
